createdAt,value
2022-12-09T00:02:23.665Z,45.17
2022-12-09T00:04:53.025Z,35.80
2022-12-09T00:07:42.103Z,81.03
2022-12-09T00:10:11.572Z,44.73
2022-12-09T00:12:42.074Z,54.53
2022-12-09T00:15:11.520Z,45.00
2022-12-09T00:17:40.440Z,55.17
2022-12-09T00:20:10.871Z,49.97
2022-12-09T00:22:41.464Z,50.50
2022-12-09T00:25:10.698Z,50.37
2022-12-09T00:27:39.587Z,59.23
2022-12-09T00:30:10.265Z,52.93
2022-12-09T00:32:39.893Z,52.90
2022-12-09T00:35:09.598Z,68.33
2022-12-09T00:37:38.549Z,54.87
2022-12-09T00:40:10.910Z,78.10
2022-12-09T00:42:40.369Z,51.80
2022-12-09T00:45:10.409Z,51.33
2022-12-09T00:47:39.432Z,52.43
2022-12-09T00:50:09.780Z,52.77
2022-12-09T00:52:39.351Z,55.70
2022-12-09T00:55:11.825Z,60.70
2022-12-09T00:57:41.268Z,49.00
2022-12-09T01:00:11.645Z,41.20
2022-12-09T01:02:41.285Z,38.10
2022-12-09T01:05:10.709Z,37.70
2022-12-09T01:07:39.795Z,37.13
2022-12-09T01:10:11.671Z,37.47
2022-12-09T01:12:40.777Z,41.03
2022-12-09T01:15:10.864Z,41.03
2022-12-09T01:17:41.668Z,48.17
2022-12-09T01:20:12.382Z,47.97
2022-12-09T01:22:41.704Z,48.87
2022-12-09T01:25:12.391Z,51.47
2022-12-09T01:27:41.945Z,54.67
2022-12-09T01:30:14.249Z,76.93
2022-12-09T01:33:02.334Z,78.03
2022-12-09T01:35:31.562Z,75.13
2022-12-09T01:38:00.608Z,75.40
2022-12-09T01:40:31.025Z,81.63
2022-12-09T01:43:00.737Z,92.73
2022-12-09T01:45:42.350Z,100.13
2022-12-09T01:48:14.688Z,111.53
2022-12-09T01:51:05.395Z,124.23
2022-12-09T01:53:39.706Z,111.40
2022-12-09T01:56:16.363Z,107.50
2022-12-09T01:58:46.847Z,81.03
2022-12-09T02:01:16.835Z,62.87
2022-12-09T02:03:47.156Z,49.60
2022-12-09T02:06:18.532Z,58.17
2022-12-09T02:08:49.875Z,351.40
2022-12-09T02:11:32.583Z,135.17
2022-12-09T02:14:08.923Z,46.30
2022-12-09T02:16:42.322Z,57.80
2022-12-09T02:19:24.500Z,44.03
2022-12-09T02:21:59.977Z,41.23
2022-12-09T02:24:39.487Z,38.40
2022-12-09T02:27:18.474Z,39.97
2022-12-09T02:30:08.887Z,37.57
2022-12-09T02:33:04.643Z,40.10
2022-12-09T02:35:40.593Z,41.13
2022-12-09T02:38:13.298Z,45.50
2022-12-09T02:40:48.027Z,47.97
2022-12-09T02:43:19.611Z,45.77
2022-12-09T02:45:50.688Z,57.87
2022-12-09T02:48:25.422Z,70.57
2022-12-09T02:50:58.844Z,70.37
2022-12-09T02:53:28.336Z,72.43
2022-12-09T02:55:58.561Z,96.17
2022-12-09T02:58:28.737Z,101.50
2022-12-09T03:00:59.707Z,101.57
2022-12-09T03:03:32.861Z,103.13
2022-12-09T03:06:08.886Z,101.77
2022-12-09T03:08:44.790Z,96.90
2022-12-09T03:11:17.318Z,101.60
2022-12-09T03:13:54.119Z,97.73
2022-12-09T03:16:28.910Z,96.60
2022-12-09T03:19:01.824Z,113.70
2022-12-09T03:21:36.430Z,109.30
2022-12-09T03:24:09.065Z,107.53
2022-12-09T03:26:40.309Z,78.93
2022-12-09T03:29:15.006Z,88.93
2022-12-09T03:32:02.495Z,88.33
2022-12-09T03:34:36.217Z,88.67
2022-12-09T03:37:09.204Z,109.03
2022-12-09T03:39:40.769Z,107.97
2022-12-09T03:42:17.995Z,103.27
2022-12-09T03:44:51.685Z,98.30
2022-12-09T03:47:21.161Z,91.83
2022-12-09T03:49:50.193Z,90.73
2022-12-09T03:52:26.526Z,92.87
2022-12-09T03:55:01.076Z,95.43
2022-12-09T03:57:31.421Z,94.63
2022-12-09T04:00:02.913Z,97.67
2022-12-09T04:02:41.597Z,96.30
2022-12-09T04:05:11.642Z,97.93
2022-12-09T04:07:43.340Z,96.27
2022-12-09T04:10:12.993Z,93.60
2022-12-09T04:12:42.411Z,85.73
2022-12-09T04:15:11.723Z,85.00
2022-12-09T04:17:40.802Z,81.30
2022-12-09T04:20:11.000Z,82.90
2022-12-09T04:22:41.595Z,83.07
2022-12-09T04:25:11.711Z,85.60
2022-12-09T04:27:41.001Z,88.67
2022-12-09T04:30:11.241Z,84.10
2022-12-09T04:32:41.496Z,78.80
2022-12-09T04:35:11.241Z,90.60
2022-12-09T04:37:41.950Z,89.47
2022-12-09T04:40:16.746Z,77.97
2022-12-09T04:42:48.821Z,109.40
2022-12-09T04:45:17.921Z,100.67
2022-12-09T04:47:47.004Z,125.47
2022-12-09T04:50:16.431Z,104.67
2022-12-09T04:52:46.875Z,102.23
2022-12-09T04:55:16.150Z,107.50
2022-12-09T04:57:45.076Z,112.13
2022-12-09T05:00:15.369Z,93.60
2022-12-09T05:02:44.859Z,56.13
2022-12-09T05:05:14.023Z,57.00
2022-12-09T05:07:43.277Z,87.47
2022-12-09T05:10:14.561Z,73.07
2022-12-09T05:12:44.288Z,70.53
2022-12-09T05:15:13.861Z,59.13
2022-12-09T05:17:43.060Z,52.77
2022-12-09T05:20:14.181Z,55.73
2022-12-09T05:22:44.090Z,52.87
2022-12-09T05:25:14.560Z,53.23
2022-12-09T05:27:43.991Z,61.87
2022-12-09T05:30:13.943Z,58.63
2022-12-09T05:32:44.776Z,60.53
2022-12-09T05:35:13.750Z,86.57
2022-12-09T05:37:42.852Z,72.73
2022-12-09T05:40:14.068Z,71.17
2022-12-09T05:42:43.505Z,58.53
2022-12-09T05:45:13.137Z,53.03
2022-12-09T05:47:42.742Z,51.80
2022-12-09T05:50:12.766Z,52.17
2022-12-09T05:52:42.699Z,55.30
2022-12-09T05:55:14.175Z,54.53
2022-12-09T05:57:43.340Z,53.47
2022-12-09T06:00:14.146Z,50.87
2022-12-09T06:02:43.919Z,48.70
2022-12-09T06:05:13.880Z,45.37
2022-12-09T06:07:43.234Z,42.47
2022-12-09T06:10:14.695Z,43.07
2022-12-09T06:12:44.300Z,42.50
2022-12-09T06:15:18.739Z,43.73
2022-12-09T06:17:50.544Z,40.23
2022-12-09T06:20:20.021Z,37.37
2022-12-09T06:22:49.149Z,38.07
2022-12-09T06:25:19.863Z,36.50
2022-12-09T06:27:49.185Z,35.30
2022-12-09T06:30:19.069Z,35.87
2022-12-09T06:32:48.376Z,34.93
2022-12-09T06:35:18.139Z,36.00
2022-12-09T06:37:47.160Z,36.53
2022-12-09T06:40:16.969Z,39.20
2022-12-09T06:42:47.594Z,39.77
2022-12-09T06:45:16.972Z,39.27
2022-12-09T06:47:45.897Z,38.70
2022-12-09T06:50:16.126Z,36.97
2022-12-09T06:52:45.410Z,39.03
2022-12-09T06:55:15.255Z,39.50
2022-12-09T06:57:44.555Z,38.53
2022-12-09T07:00:16.575Z,40.20
2022-12-09T07:02:46.056Z,34.30
2022-12-09T07:05:15.800Z,46.17
2022-12-09T07:07:45.771Z,59.57
2022-12-09T07:10:14.732Z,45.03
2022-12-09T07:12:44.166Z,41.43
2022-12-09T07:15:16.172Z,32.80
2022-12-09T07:17:45.566Z,34.53
2022-12-09T07:20:15.690Z,31.77
2022-12-09T07:22:44.832Z,29.83
2022-12-09T07:25:14.157Z,29.40
2022-12-09T07:27:44.217Z,30.20
2022-12-09T07:30:15.543Z,29.03
2022-12-09T07:32:45.093Z,29.33
2022-12-09T07:35:14.590Z,28.77
2022-12-09T07:37:44.065Z,29.57
2022-12-09T07:40:13.995Z,30.60
2022-12-09T07:42:43.535Z,41.13
2022-12-09T07:45:15.321Z,97.87
2022-12-09T07:47:45.244Z,36.60
2022-12-09T07:50:14.343Z,33.10
2022-12-09T07:52:43.451Z,34.37
2022-12-09T07:55:12.908Z,31.57
2022-12-09T07:57:42.999Z,30.67
2022-12-09T08:00:13.494Z,33.60
2022-12-09T08:02:44.276Z,32.03
2022-12-09T08:05:13.696Z,32.40
2022-12-09T08:07:44.726Z,33.80
2022-12-09T08:10:14.211Z,31.53
2022-12-09T08:12:43.258Z,33.93
2022-12-09T08:15:13.349Z,36.73
2022-12-09T08:17:44.316Z,46.43
2022-12-09T08:20:15.611Z,54.43
2022-12-09T08:22:44.995Z,32.23
2022-12-09T08:25:14.197Z,24.70
2022-12-09T08:27:44.107Z,32.67
2022-12-09T08:30:15.053Z,28.93
2022-12-09T08:32:46.331Z,30.00
2022-12-09T08:35:16.315Z,31.00
2022-12-09T08:38:04.220Z,33.07
2022-12-09T08:40:33.689Z,32.40
2022-12-09T08:43:05.005Z,32.60
2022-12-09T08:45:37.844Z,60.67
2022-12-09T08:48:10.354Z,44.60
2022-12-09T08:50:40.097Z,45.40
2022-12-09T08:53:09.313Z,45.27
2022-12-09T08:55:40.288Z,45.27
2022-12-09T08:58:09.813Z,51.27
2022-12-09T09:00:39.126Z,51.80
2022-12-09T09:03:09.671Z,40.53
2022-12-09T09:05:39.275Z,30.33
2022-12-09T09:08:08.395Z,28.37
2022-12-09T09:10:38.954Z,26.30
2022-12-09T09:13:08.314Z,24.33
2022-12-09T09:15:40.474Z,23.93
2022-12-09T09:18:11.010Z,24.10
2022-12-09T09:20:40.357Z,24.70
2022-12-09T09:23:09.439Z,23.53
2022-12-09T09:25:42.773Z,23.90
2022-12-09T09:28:12.484Z,23.40
2022-12-09T09:30:41.517Z,22.67
2022-12-09T09:33:12.250Z,24.47
2022-12-09T09:35:41.600Z,30.73
2022-12-09T09:38:30.716Z,33.90
2022-12-09T09:41:02.053Z,34.60
2022-12-09T09:43:40.229Z,27.47
2022-12-09T09:46:12.448Z,21.70
2022-12-09T09:48:44.137Z,41.47
2022-12-09T09:51:17.144Z,53.20
2022-12-09T09:53:49.881Z,32.60
2022-12-09T09:56:26.892Z,23.37
2022-12-09T09:59:24.759Z,34.10
2022-12-09T10:02:00.586Z,23.27
2022-12-09T10:05:04.891Z,20.00
2022-12-09T10:07:42.191Z,21.83
2022-12-09T10:10:21.906Z,20.60
2022-12-09T10:13:11.030Z,19.47
2022-12-09T10:15:50.161Z,20.97
2022-12-09T10:18:27.995Z,19.97
2022-12-09T10:20:58.922Z,18.80
2022-12-09T10:23:33.017Z,19.43
2022-12-09T10:26:08.175Z,18.10
2022-12-09T10:28:41.830Z,20.77
2022-12-09T10:31:12.755Z,18.37
2022-12-09T10:33:42.932Z,18.77
2022-12-09T10:36:24.900Z,18.50
2022-12-09T10:38:56.134Z,21.73
2022-12-09T10:42:03.016Z,16.67
2022-12-09T10:44:32.725Z,18.13
2022-12-09T10:47:04.217Z,18.63
2022-12-09T10:49:35.049Z,18.03
2022-12-09T10:52:26.389Z,19.23
2022-12-09T10:54:56.001Z,20.93
2022-12-09T10:57:27.611Z,21.50
2022-12-09T11:00:08.113Z,23.23
2022-12-09T11:02:37.524Z,19.30
2022-12-09T11:05:29.073Z,18.80
2022-12-09T11:08:00.955Z,17.50
2022-12-09T11:10:32.119Z,17.77
2022-12-09T11:13:05.463Z,20.13
2022-12-09T11:15:39.767Z,17.80
2022-12-09T11:18:20.242Z,20.93
2022-12-09T11:20:59.077Z,19.30
2022-12-09T11:23:30.781Z,20.37
2022-12-09T11:26:02.627Z,23.43
2022-12-09T11:28:33.616Z,20.07
2022-12-09T11:34:00.326Z,17.93
2022-12-09T11:36:33.450Z,18.57
2022-12-09T11:39:28.401Z,17.80
2022-12-09T11:42:19.481Z,20.50
2022-12-09T11:44:57.905Z,16.20
2022-12-09T11:47:44.861Z,18.30
2022-12-09T11:50:25.276Z,16.83
2022-12-09T11:53:09.022Z,17.10
2022-12-09T11:55:45.909Z,17.80
2022-12-09T11:58:20.220Z,16.27
2022-12-09T12:00:53.443Z,16.23
2022-12-09T12:03:27.371Z,15.47
2022-12-09T12:05:57.041Z,16.93
2022-12-09T12:08:33.353Z,14.80
2022-12-09T12:11:11.976Z,15.23
2022-12-09T12:13:47.554Z,21.53
2022-12-09T12:16:22.255Z,20.23
2022-12-09T12:18:55.224Z,19.33
2022-12-09T12:21:45.915Z,19.27
2022-12-09T12:24:37.787Z,19.13
2022-12-09T12:27:24.797Z,17.30
2022-12-09T12:30:00.991Z,18.07
2022-12-09T12:32:43.330Z,18.17
2022-12-09T12:35:30.999Z,18.87
2022-12-09T12:38:12.472Z,19.53
2022-12-09T12:40:47.376Z,18.23
2022-12-09T12:43:55.044Z,18.43
2022-12-09T12:46:38.371Z,17.90
2022-12-09T12:49:31.576Z,16.43
2022-12-09T12:52:26.394Z,18.03
2022-12-09T12:55:05.839Z,16.13
2022-12-09T12:57:46.907Z,17.70
2022-12-09T13:00:21.448Z,17.43
2022-12-09T13:03:03.215Z,26.63
2022-12-09T13:05:39.954Z,19.33
2022-12-09T13:08:34.921Z,19.27
2022-12-09T13:11:09.932Z,20.03
2022-12-09T13:13:46.187Z,19.93
2022-12-09T13:16:32.623Z,22.63
2022-12-09T13:19:08.450Z,30.33
2022-12-09T13:21:38.039Z,35.07
2022-12-09T13:24:18.307Z,30.47
2022-12-09T13:26:54.171Z,31.67
2022-12-09T13:29:37.404Z,26.83
2022-12-09T13:32:20.917Z,32.53
2022-12-09T13:34:54.732Z,35.17
2022-12-09T13:37:58.336Z,30.30
2022-12-09T13:40:32.540Z,27.10
2022-12-09T13:43:21.112Z,23.07
2022-12-09T13:45:53.282Z,27.43
2022-12-09T13:48:48.863Z,28.07
2022-12-09T13:51:18.984Z,31.80
2022-12-09T13:53:51.828Z,27.90
2022-12-09T13:56:25.498Z,24.50
2022-12-09T13:59:41.956Z,24.70
2022-12-09T14:02:28.776Z,21.40
2022-12-09T14:05:08.822Z,22.23
2022-12-09T14:07:43.417Z,26.80
2022-12-09T14:10:37.641Z,29.13
2022-12-09T14:13:28.629Z,28.63
2022-12-09T14:16:25.096Z,27.60
2022-12-09T14:18:54.162Z,30.90
2022-12-09T14:21:29.948Z,27.90
2022-12-09T14:24:34.708Z,29.50
2022-12-09T14:27:18.080Z,27.63
2022-12-09T14:29:52.916Z,27.70
2022-12-09T14:32:32.886Z,27.67
2022-12-09T14:35:17.601Z,28.87
2022-12-09T14:38:00.607Z,30.03
2022-12-09T14:40:54.683Z,32.23
2022-12-09T14:43:54.489Z,48.80
2022-12-09T14:46:33.549Z,33.97
2022-12-09T14:49:06.201Z,29.33
2022-12-09T14:51:38.745Z,31.43
2022-12-09T14:54:16.210Z,52.57
2022-12-09T14:57:07.088Z,87.73
2022-12-09T14:59:36.619Z,59.60
2022-12-09T15:02:20.934Z,55.13
2022-12-09T15:04:52.189Z,56.47
2022-12-09T15:07:22.800Z,46.80
2022-12-09T15:10:21.752Z,49.47
2022-12-09T15:12:53.782Z,47.93
2022-12-09T15:15:25.317Z,48.70
2022-12-09T15:17:59.352Z,46.80
2022-12-09T15:20:31.766Z,44.53
2022-12-09T15:23:03.361Z,40.43
2022-12-09T15:25:36.066Z,41.53
2022-12-09T15:28:09.390Z,42.33
2022-12-09T15:30:40.053Z,48.43
2022-12-09T15:33:30.768Z,46.93
2022-12-09T15:36:04.470Z,42.77
2022-12-09T15:38:55.436Z,36.60
2022-12-09T15:42:03.837Z,41.47
2022-12-09T15:44:36.581Z,39.23
2022-12-09T15:47:10.440Z,39.17
2022-12-09T15:49:46.327Z,46.83
2022-12-09T15:52:19.783Z,61.77
2022-12-09T15:54:49.939Z,50.10
2022-12-09T15:57:24.155Z,50.10
2022-12-09T16:00:12.815Z,50.30
2022-12-09T16:02:42.672Z,100.37
2022-12-09T16:05:30.155Z,138.70
2022-12-09T16:08:02.169Z,150.13
2022-12-09T16:10:32.400Z,106.93
2022-12-09T16:13:13.997Z,107.63
2022-12-09T16:15:47.137Z,97.07
2022-12-09T16:18:20.125Z,104.57
2022-12-09T16:21:01.945Z,132.77
2022-12-09T16:23:31.131Z,116.73
2022-12-09T16:26:07.082Z,114.60
2022-12-09T16:28:38.692Z,99.10
2022-12-09T16:31:19.513Z,106.80
2022-12-09T16:33:50.561Z,129.43
2022-12-09T16:36:23.181Z,132.70
2022-12-09T16:39:24.533Z,119.10
2022-12-09T16:42:24.559Z,72.13
2022-12-09T16:45:15.047Z,59.33
2022-12-09T16:47:46.036Z,57.13
2022-12-09T16:50:16.239Z,50.80
2022-12-09T16:52:45.202Z,48.17
2022-12-09T16:55:21.446Z,50.37
2022-12-09T16:57:51.316Z,50.53
2022-12-09T17:00:22.615Z,47.63
2022-12-09T17:02:58.469Z,47.83
2022-12-09T17:05:27.788Z,46.03
2022-12-09T17:07:56.680Z,47.70
2022-12-09T17:10:25.895Z,45.80
2022-12-09T17:12:57.749Z,38.97
2022-12-09T17:15:28.939Z,34.70
2022-12-09T17:17:59.029Z,36.37
2022-12-09T17:20:28.845Z,36.90
2022-12-09T17:22:58.409Z,38.07
2022-12-09T17:25:29.907Z,40.97
2022-12-09T17:27:58.989Z,47.93
2022-12-09T17:30:30.264Z,48.67
2022-12-09T17:33:03.457Z,53.93
2022-12-09T17:35:34.444Z,54.93
2022-12-09T17:38:03.761Z,54.33
2022-12-09T17:40:36.712Z,62.37
2022-12-09T17:43:05.662Z,59.30
2022-12-09T17:45:42.117Z,54.80
2022-12-09T17:48:17.521Z,59.27
2022-12-09T17:50:46.574Z,69.30
2022-12-09T17:53:15.875Z,81.70
2022-12-09T17:55:45.772Z,81.07
2022-12-09T17:58:14.875Z,90.27
2022-12-09T18:00:45.259Z,95.77
2022-12-09T18:03:27.521Z,93.57
2022-12-09T18:06:03.862Z,49.80
2022-12-09T18:08:32.781Z,44.37
2022-12-09T18:11:05.008Z,40.87
2022-12-09T18:13:34.603Z,34.07
2022-12-09T18:16:09.891Z,33.80
2022-12-09T18:18:40.074Z,32.77
2022-12-09T18:21:15.315Z,32.00
2022-12-09T18:23:45.255Z,32.80
2022-12-09T18:26:16.145Z,59.97
2022-12-09T18:28:45.361Z,54.47
2022-12-09T18:31:19.290Z,81.90
2022-12-09T18:33:49.135Z,78.20
2022-12-09T18:36:20.076Z,74.27
2022-12-09T18:38:50.132Z,78.40
2022-12-09T18:41:22.024Z,82.40
2022-12-09T18:43:53.182Z,101.43
2022-12-09T18:46:26.354Z,154.53
2022-12-09T18:48:59.396Z,171.20
2022-12-09T18:51:29.426Z,210.97
2022-12-09T18:53:59.283Z,206.27
2022-12-09T18:56:31.513Z,200.23
2022-12-09T18:59:09.252Z,195.33
2022-12-09T19:01:41.813Z,194.00
2022-12-09T19:04:17.251Z,158.27
2022-12-09T19:06:47.871Z,162.00
2022-12-09T19:09:19.826Z,161.77
2022-12-09T19:11:50.643Z,182.07
2022-12-09T19:14:21.760Z,200.93
2022-12-09T19:17:11.021Z,179.23
2022-12-09T19:19:43.447Z,151.07
2022-12-09T19:22:13.641Z,112.10
2022-12-09T19:24:48.075Z,107.57
2022-12-09T19:27:17.909Z,92.10
2022-12-09T19:29:53.368Z,83.97
2022-12-09T19:32:52.060Z,100.23
2022-12-09T19:35:13.874Z,90.70
2022-12-09T19:37:43.174Z,148.47
2022-12-09T19:40:14.345Z,142.20
2022-12-09T19:42:43.233Z,124.77
2022-12-09T19:45:14.385Z,121.40
2022-12-09T19:47:46.196Z,109.43
2022-12-09T19:50:16.239Z,106.87
2022-12-09T19:52:50.891Z,84.43
2022-12-09T19:55:25.487Z,71.60
2022-12-09T19:57:55.788Z,58.23
2022-12-09T20:00:24.733Z,69.53
2022-12-09T20:02:59.332Z,60.17
2022-12-09T20:05:28.330Z,52.03
2022-12-09T20:07:57.415Z,51.30
2022-12-09T20:10:35.840Z,67.60
2022-12-09T20:13:10.766Z,68.03
2022-12-09T20:15:46.458Z,70.90
2022-12-09T20:18:21.859Z,97.40
2022-12-09T20:20:51.221Z,132.03
2022-12-09T20:23:28.315Z,125.43
2022-12-09T20:26:07.026Z,124.10
2022-12-09T20:28:38.186Z,126.77
2022-12-09T20:31:10.917Z,86.53
2022-12-09T20:33:42.225Z,41.97
2022-12-09T20:36:15.128Z,72.90
2022-12-09T20:38:50.546Z,41.40
2022-12-09T20:41:20.444Z,39.20
2022-12-09T20:43:51.628Z,42.30
2022-12-09T20:46:22.874Z,35.87
2022-12-09T20:48:53.488Z,30.37
2022-12-09T20:51:25.547Z,37.20
2022-12-09T20:53:55.886Z,47.07
2022-12-09T20:56:27.001Z,34.67
2022-12-09T20:58:57.007Z,74.63
2022-12-09T21:01:30.098Z,103.67
2022-12-09T21:04:02.516Z,98.47
2022-12-09T21:06:33.068Z,155.27
2022-12-09T21:09:04.773Z,169.97
2022-12-09T21:11:34.621Z,152.47
2022-12-09T21:14:05.910Z,152.37
2022-12-09T21:16:38.941Z,142.43
2022-12-09T21:19:13.602Z,150.90
2022-12-09T21:21:47.150Z,244.90
2022-12-09T21:24:21.550Z,231.97
2022-12-09T21:26:53.587Z,455.33
2022-12-09T21:29:32.708Z,174.13
2022-12-09T21:32:05.477Z,165.67
2022-12-09T21:34:37.418Z,149.53
2022-12-09T21:37:25.218Z,130.80
2022-12-09T21:39:54.032Z,133.60
2022-12-09T21:42:27.430Z,117.67
2022-12-09T21:45:01.189Z,110.80
2022-12-09T21:47:34.531Z,105.77
2022-12-09T21:50:11.643Z,127.33
2022-12-09T21:52:42.167Z,147.77
2022-12-09T21:55:11.889Z,150.73
2022-12-09T21:57:40.725Z,146.63
2022-12-09T22:00:11.782Z,148.73
2022-12-09T22:02:41.536Z,135.40
2022-12-09T22:05:12.004Z,126.93
2022-12-09T22:07:40.851Z,127.97
2022-12-09T22:10:11.114Z,126.80
2022-12-09T22:12:40.101Z,106.47
2022-12-09T22:15:11.169Z,101.37
2022-12-09T22:17:40.212Z,96.13
2022-12-09T22:20:54.132Z,98.70
2022-12-09T22:23:19.238Z,111.73
2022-12-09T22:25:48.328Z,124.63
2022-12-09T22:28:17.342Z,120.63
2022-12-09T22:30:46.292Z,119.97
2022-12-09T22:33:15.203Z,122.87
2022-12-09T22:35:45.496Z,106.87
2022-12-09T22:38:14.914Z,139.03
2022-12-09T22:40:44.065Z,135.50
2022-12-09T22:43:12.935Z,139.93
2022-12-09T22:45:41.848Z,361.80
2022-12-09T22:48:10.826Z,129.63
2022-12-09T22:50:39.690Z,128.47
2022-12-09T22:53:10.169Z,126.00
2022-12-09T22:55:39.092Z,126.50
2022-12-09T22:58:07.900Z,125.77
2022-12-09T23:00:36.811Z,189.73
2022-12-09T23:03:05.884Z,267.13
2022-12-09T23:05:38.820Z,217.40
2022-12-09T23:08:09.555Z,205.00
2022-12-09T23:10:38.561Z,210.33
2022-12-09T23:13:07.993Z,200.33
2022-12-09T23:15:37.691Z,184.63
2022-12-09T23:18:07.000Z,185.13
2022-12-09T23:20:36.236Z,188.83
2022-12-09T23:23:05.546Z,179.53
2022-12-09T23:25:36.631Z,173.10
2022-12-09T23:28:06.043Z,186.83
2022-12-09T23:30:36.069Z,174.80
2022-12-09T23:33:05.421Z,198.97
2022-12-09T23:35:39.436Z,195.00
2022-12-09T23:38:08.354Z,183.40
2022-12-09T23:40:38.779Z,163.13
2022-12-09T23:43:07.626Z,180.70
2022-12-09T23:45:36.571Z,181.90
2022-12-09T23:48:05.583Z,181.03
2022-12-09T23:50:34.590Z,185.30
2022-12-09T23:53:03.584Z,201.50
2022-12-09T23:55:32.597Z,193.97
2022-12-09T23:58:02.970Z,206.53
